Alto, TX

3:36 PM CST on December 17, 2014 (GMT -0600)
RAWS RATCLIFF TX US | Change Station
CLOSE
Current Station
Personal Weather Station
Location: Ratcliff, TX
Elevation: 434 ft
Nearby Weather Stations

Elev 434 ft 31.40 °N, 95.14 °W | Updated 34 minutes ago

Overcast
Overcast
48 °F
Feels Like 48 °F
N
0
Wind Variable Wind from North
Gusts 0.0 mph

Today
High -- | Low -- °F
--% Chance of Precip.
Yesterday
High -- | Low -- °F
Precip. -- in
7:13 AM 5:19 PM
Waning Crescent, 19% visible
Pressure 30.14 in
Visibility 10.0 miles
Clouds Scattered Clouds 4400 ft
Mostly Cloudy 6500 ft
Overcast 7000 ft
Windchill 48 °F
Dew Point 40 °F
Humidity 74%
Rainfall 0.00 in
Snow Depth Not available.
UV 0 out of 12
Pollen 1.90 out of 12
Air Quality Not available.
Flu Activity Not available.
METAR KJSO 172115Z AUTO 08005KT 10SM SCT044 BKN065 OVC070 09/03 A3014 RMK AO2 LTG DSNT SW T00950040

More Conditions Fewer Conditions

Pressure 30.14 in
Visibility 10.0 miles
Clouds Scattered Clouds 4400 ft
Mostly Cloudy 6500 ft
Overcast 7000 ft
Windchill 48 °F
Dew Point 40 °F
Humidity 74%
Rainfall 0.00 in
Snow Depth Not available.
UV 0 out of 12
Pollen 1.90 out of 12
Air Quality Not available.
Flu Activity Not available.
METAR KJSO 172115Z AUTO 08005KT 10SM SCT044 BKN065 OVC070 09/03 A3014 RMK AO2 LTG DSNT SW T00950040

More Conditions Fewer Conditions

Nowcast | as of 2:55 PM CST on December 17, 2014

Scattered showers are moving northeastward across East Texas... southeast Oklahoma...and southwest Arkansas at 40 mph. Rainfall amounts less than a tenth of an inch can be expected over the next couple of hours.

×

10-Day Weather Forecast

Almanac

Astronomy

Dec. 17, 2014 Rise Set
Actual Time
Civil Twilight
Nautical Twilight
Astronomical Twilight
Moon
Length of Visible Light
Length of Day
Tomorrow will be .
, % of the Moon is Illuminated

Today's Extremes

State Highs State Lows

Community

WunderPhotos

Upload Photos

1,778,807 photos uploaded!

WunderBlogs® & News

Nearby

Air Quality

  Air Quality AQ Index Pollutant
Not available.

Snow Depth

Station Depth Elevation

Earthquake Activity

City Distance Mag. Time & Date
Minimum magnitude displayed is 2.5.

Coastal Water Temperatures

Place Temperature

Nearby Weather Stations